sensor_id;sensor_type;location;lat;lon;timestamp;temperature;humidity
71254;HTU21D;59019;47.638;18.966;2023-02-27T00:00:30;0.19;74.83
71254;HTU21D;59019;47.638;18.966;2023-02-27T00:02:56;0.19;75.84
71254;HTU21D;59019;47.638;18.966;2023-02-27T00:05:24;0.10;76.04
71254;HTU21D;59019;47.638;18.966;2023-02-27T00:07:50;0.04;76.35
71254;HTU21D;59019;47.638;18.966;2023-02-27T00:10:16;-0.14;76.80
71254;HTU21D;59019;47.638;18.966;2023-02-27T00:12:42;-0.23;77.44
71254;HTU21D;59019;47.638;18.966;2023-02-27T00:15:14;-0.27;77.80
71254;HTU21D;59019;47.638;18.966;2023-02-27T00:17:40;-0.36;77.69
71254;HTU21D;59019;47.638;18.966;2023-02-27T00:20:07;-0.45;78.12
71254;HTU21D;59019;47.638;18.966;2023-02-27T00:22:35;-0.62;78.69
71254;HTU21D;59019;47.638;18.966;2023-02-27T00:25:01;-0.67;79.26
71254;HTU21D;59019;47.638;18.966;2023-02-27T00:27:27;-0.77;79.49
71254;HTU21D;59019;47.638;18.966;2023-02-27T00:29:52;-0.83;79.56
71254;HTU21D;59019;47.638;18.966;2023-02-27T00:32:18;-0.88;79.55
71254;HTU21D;59019;47.638;18.966;2023-02-27T00:34:43;-0.95;78.76
71254;HTU21D;59019;47.638;18.966;2023-02-27T00:37:09;-0.94;78.79
71254;HTU21D;59019;47.638;18.966;2023-02-27T00:39:35;-0.89;78.75
71254;HTU21D;59019;47.638;18.966;2023-02-27T00:42:00;-0.89;79.12
71254;HTU21D;59019;47.638;18.966;2023-02-27T00:44:26;-0.81;79.80
71254;HTU21D;59019;47.638;18.966;2023-02-27T00:46:51;-0.77;80.21
71254;HTU21D;59019;47.638;18.966;2023-02-27T00:49:17;-0.71;80.29
71254;HTU21D;59019;47.638;18.966;2023-02-27T00:51:44;-0.66;80.26
71254;HTU21D;59019;47.638;18.966;2023-02-27T00:54:09;-0.65;79.97
71254;HTU21D;59019;47.638;18.966;2023-02-27T00:56:35;-0.61;79.89
71254;HTU21D;59019;47.638;18.966;2023-02-27T00:59:01;-0.60;80.33
71254;HTU21D;59019;47.638;18.966;2023-02-27T01:01:28;-0.54;79.61
71254;HTU21D;59019;47.638;18.966;2023-02-27T01:03:53;-0.49;79.33
71254;HTU21D;59019;47.638;18.966;2023-02-27T01:06:20;-0.40;78.83
71254;HTU21D;59019;47.638;18.966;2023-02-27T01:08:45;-0.42;79.41
71254;HTU21D;59019;47.638;18.966;2023-02-27T01:11:11;-0.43;79.66
71254;HTU21D;59019;47.638;18.966;2023-02-27T01:13:36;-0.36;79.38
71254;HTU21D;59019;47.638;18.966;2023-02-27T01:16:02;-0.36;79.24
71254;HTU21D;59019;47.638;18.966;2023-02-27T01:18:28;-0.30;78.13
71254;HTU21D;59019;47.638;18.966;2023-02-27T01:20:54;-0.23;77.48
71254;HTU21D;59019;47.638;18.966;2023-02-27T01:23:20;-0.16;77.02
71254;HTU21D;59019;47.638;18.966;2023-02-27T01:25:47;-0.05;76.69
71254;HTU21D;59019;47.638;18.966;2023-02-27T01:28:13;0.01;76.35
71254;HTU21D;59019;47.638;18.966;2023-02-27T01:30:40;0.07;75.69
71254;HTU21D;59019;47.638;18.966;2023-02-27T01:33:06;0.19;75.73
71254;HTU21D;59019;47.638;18.966;2023-02-27T01:35:33;0.30;74.92
71254;HTU21D;59019;47.638;18.966;2023-02-27T01:37:58;0.37;74.99
71254;HTU21D;59019;47.638;18.966;2023-02-27T01:40:24;0.54;75.01
71254;HTU21D;59019;47.638;18.966;2023-02-27T01:42:49;0.55;73.97
71254;HTU21D;59019;47.638;18.966;2023-02-27T01:45:28;0.73;72.65
71254;HTU21D;59019;47.638;18.966;2023-02-27T01:48:16;0.74;72.48
71254;HTU21D;59019;47.638;18.966;2023-02-27T01:50:47;0.76;72.52
71254;HTU21D;59019;47.638;18.966;2023-02-27T01:53:14;0.86;72.24
71254;HTU21D;59019;47.638;18.966;2023-02-27T01:55:41;0.87;71.66
71254;HTU21D;59019;47.638;18.966;2023-02-27T01:58:09;0.84;71.73
71254;HTU21D;59019;47.638;18.966;2023-02-27T02:00:36;0.88;72.01
71254;HTU21D;59019;47.638;18.966;2023-02-27T02:05:33;0.94;71.40
71254;HTU21D;59019;47.638;18.966;2023-02-27T02:08:00;0.95;71.54
71254;HTU21D;59019;47.638;18.966;2023-02-27T02:10:26;0.98;71.21
71254;HTU21D;59019;47.638;18.966;2023-02-27T02:12:52;0.96;70.89
71254;HTU21D;59019;47.638;18.966;2023-02-27T02:15:20;0.98;71.17
71254;HTU21D;59019;47.638;18.966;2023-02-27T02:47:58;1.17;70.35
71254;HTU21D;59019;47.638;18.966;2023-02-27T02:53:41;1.19;70.17
71254;HTU21D;59019;47.638;18.966;2023-02-27T02:56:20;1.23;70.15
71254;HTU21D;59019;47.638;18.966;2023-02-27T03:01:40;1.24;70.97
71254;HTU21D;59019;47.638;18.966;2023-02-27T03:07:10;1.20;71.61
71254;HTU21D;59019;47.638;18.966;2023-02-27T03:09:44;1.14;71.21
71254;HTU21D;59019;47.638;18.966;2023-02-27T03:12:14;1.12;71.67
71254;HTU21D;59019;47.638;18.966;2023-02-27T03:14:57;1.16;71.96
71254;HTU21D;59019;47.638;18.966;2023-02-27T03:17:32;1.16;71.96
71254;HTU21D;59019;47.638;18.966;2023-02-27T03:20:04;1.12;72.46
71254;HTU21D;59019;47.638;18.966;2023-02-27T03:22:35;1.17;71.76
71254;HTU21D;59019;47.638;18.966;2023-02-27T03:25:05;1.08;71.42
71254;HTU21D;59019;47.638;18.966;2023-02-27T03:27:36;1.04;71.96
71254;HTU21D;59019;47.638;18.966;2023-02-27T03:30:12;1.14;72.25
71254;HTU21D;59019;47.638;18.966;2023-02-27T03:32:46;1.13;72.90
71254;HTU21D;59019;47.638;18.966;2023-02-27T03:35:17;1.17;73.27
71254;HTU21D;59019;47.638;18.966;2023-02-27T03:38:22;1.16;73.33
71254;HTU21D;59019;47.638;18.966;2023-02-27T03:40:56;1.17;73.28
71254;HTU21D;59019;47.638;18.966;2023-02-27T03:43:43;1.14;73.08
71254;HTU21D;59019;47.638;18.966;2023-02-27T03:46:16;1.09;73.33
71254;HTU21D;59019;47.638;18.966;2023-02-27T03:48:43;1.11;73.51
71254;HTU21D;59019;47.638;18.966;2023-02-27T03:51:11;1.09;73.57
71254;HTU21D;59019;47.638;18.966;2023-02-27T03:54:06;1.07;73.67
71254;HTU21D;59019;47.638;18.966;2023-02-27T03:56:59;1.04;74.15
71254;HTU21D;59019;47.638;18.966;2023-02-27T03:59:26;1.05;74.61
71254;HTU21D;59019;47.638;18.966;2023-02-27T04:01:53;1.02;74.67
71254;HTU21D;59019;47.638;18.966;2023-02-27T04:04:21;0.84;74.50
71254;HTU21D;59019;47.638;18.966;2023-02-27T04:07:08;0.90;74.50
71254;HTU21D;59019;47.638;18.966;2023-02-27T04:13:06;0.80;74.77
71254;HTU21D;59019;47.638;18.966;2023-02-27T04:18:29;0.89;74.80
71254;HTU21D;59019;47.638;18.966;2023-02-27T04:21:04;0.83;75.62
71254;HTU21D;59019;47.638;18.966;2023-02-27T04:31:27;0.69;76.11
71254;HTU21D;59019;47.638;18.966;2023-02-27T04:34:09;0.74;76.40
71254;HTU21D;59019;47.638;18.966;2023-02-27T04:36:58;0.74;76.21
71254;HTU21D;59019;47.638;18.966;2023-02-27T04:39:43;0.81;76.44
71254;HTU21D;59019;47.638;18.966;2023-02-27T04:42:19;0.77;76.41
71254;HTU21D;59019;47.638;18.966;2023-02-27T04:44:50;0.76;76.28
71254;HTU21D;59019;47.638;18.966;2023-02-27T04:47:17;0.73;76.38
71254;HTU21D;59019;47.638;18.966;2023-02-27T04:49:47;0.68;76.41
71254;HTU21D;59019;47.638;18.966;2023-02-27T04:52:21;0.68;76.11
71254;HTU21D;59019;47.638;18.966;2023-02-27T04:54:53;0.72;75.68
71254;HTU21D;59019;47.638;18.966;2023-02-27T04:57:37;0.77;75.67
71254;HTU21D;59019;47.638;18.966;2023-02-27T05:00:09;0.81;75.73
71254;HTU21D;59019;47.638;18.966;2023-02-27T05:02:40;0.82;76.25
71254;HTU21D;59019;47.638;18.966;2023-02-27T05:05:13;0.83;76.33
71254;HTU21D;59019;47.638;18.966;2023-02-27T05:07:45;0.76;76.54
71254;HTU21D;59019;47.638;18.966;2023-02-27T05:10:39;0.68;76.79
71254;HTU21D;59019;47.638;18.966;2023-02-27T05:13:15;0.65;77.03
71254;HTU21D;59019;47.638;18.966;2023-02-27T05:15:55;0.61;77.34
71254;HTU21D;59019;47.638;18.966;2023-02-27T05:18:24;0.63;77.82
71254;HTU21D;59019;47.638;18.966;2023-02-27T05:29:51;0.39;78.68
71254;HTU21D;59019;47.638;18.966;2023-02-27T05:34:59;0.24;78.06
71254;HTU21D;59019;47.638;18.966;2023-02-27T05:40:22;0.29;78.60
71254;HTU21D;59019;47.638;18.966;2023-02-27T05:43:01;0.36;78.59
71254;HTU21D;59019;47.638;18.966;2023-02-27T05:45:30;0.31;78.88
71254;HTU21D;59019;47.638;18.966;2023-02-27T05:48:15;0.21;78.89
71254;HTU21D;59019;47.638;18.966;2023-02-27T05:50:42;0.28;78.81
71254;HTU21D;59019;47.638;18.966;2023-02-27T05:53:12;0.27;79.05
71254;HTU21D;59019;47.638;18.966;2023-02-27T05:55:51;0.33;78.94
71254;HTU21D;59019;47.638;18.966;2023-02-27T06:00:53;0.38;78.82
71254;HTU21D;59019;47.638;18.966;2023-02-27T06:03:21;0.43;78.75
71254;HTU21D;59019;47.638;18.966;2023-02-27T06:05:48;0.51;78.91
71254;HTU21D;59019;47.638;18.966;2023-02-27T06:08:17;0.54;78.97
71254;HTU21D;59019;47.638;18.966;2023-02-27T06:10:43;0.61;78.98
71254;HTU21D;59019;47.638;18.966;2023-02-27T06:13:09;0.63;79.13
71254;HTU21D;59019;47.638;18.966;2023-02-27T06:15:34;0.68;79.08
71254;HTU21D;59019;47.638;18.966;2023-02-27T06:18:00;0.74;79.10
71254;HTU21D;59019;47.638;18.966;2023-02-27T06:20:26;0.79;78.49
71254;HTU21D;59019;47.638;18.966;2023-02-27T06:22:51;0.87;77.41
71254;HTU21D;59019;47.638;18.966;2023-02-27T06:25:17;0.91;76.43
71254;HTU21D;59019;47.638;18.966;2023-02-27T06:27:43;0.95;75.87
71254;HTU21D;59019;47.638;18.966;2023-02-27T06:30:09;0.98;75.82
71254;HTU21D;59019;47.638;18.966;2023-02-27T06:32:35;1.11;75.60
71254;HTU21D;59019;47.638;18.966;2023-02-27T06:35:01;1.10;74.44
71254;HTU21D;59019;47.638;18.966;2023-02-27T06:37:26;1.18;73.37
71254;HTU21D;59019;47.638;18.966;2023-02-27T06:39:53;1.26;73.40
71254;HTU21D;59019;47.638;18.966;2023-02-27T06:42:18;1.38;73.45
71254;HTU21D;59019;47.638;18.966;2023-02-27T06:44:44;1.46;72.96
71254;HTU21D;59019;47.638;18.966;2023-02-27T06:47:09;1.54;71.94
71254;HTU21D;59019;47.638;18.966;2023-02-27T06:49:35;1.64;70.79
71254;HTU21D;59019;47.638;18.966;2023-02-27T06:52:00;1.68;69.15
71254;HTU21D;59019;47.638;18.966;2023-02-27T06:54:26;1.81;68.51
71254;HTU21D;59019;47.638;18.966;2023-02-27T06:56:51;1.96;67.81
71254;HTU21D;59019;47.638;18.966;2023-02-27T06:59:17;2.02;67.39
71254;HTU21D;59019;47.638;18.966;2023-02-27T07:01:42;2.13;67.35
71254;HTU21D;59019;47.638;18.966;2023-02-27T07:04:12;2.29;67.52
71254;HTU21D;59019;47.638;18.966;2023-02-27T07:06:39;2.29;66.51
71254;HTU21D;59019;47.638;18.966;2023-02-27T07:09:04;2.43;66.32
71254;HTU21D;59019;47.638;18.966;2023-02-27T07:11:30;2.49;65.25
71254;HTU21D;59019;47.638;18.966;2023-02-27T07:13:56;2.56;64.92
71254;HTU21D;59019;47.638;18.966;2023-02-27T07:16:21;2.56;64.18
71254;HTU21D;59019;47.638;18.966;2023-02-27T07:18:47;2.69;64.21
71254;HTU21D;59019;47.638;18.966;2023-02-27T07:21:13;2.82;63.38
71254;HTU21D;59019;47.638;18.966;2023-02-27T07:23:41;2.89;62.60
71254;HTU21D;59019;47.638;18.966;2023-02-27T07:26:06;2.95;62.15
71254;HTU21D;59019;47.638;18.966;2023-02-27T07:28:32;3.00;62.60
71254;HTU21D;59019;47.638;18.966;2023-02-27T07:30:59;3.09;62.78
71254;HTU21D;59019;47.638;18.966;2023-02-27T07:33:24;3.08;61.15
71254;HTU21D;59019;47.638;18.966;2023-02-27T07:35:50;3.02;60.52
71254;HTU21D;59019;47.638;18.966;2023-02-27T07:38:16;3.05;61.67
71254;HTU21D;59019;47.638;18.966;2023-02-27T07:40:44;2.99;64.27
71254;HTU21D;59019;47.638;18.966;2023-02-27T07:43:11;2.99;62.72
71254;HTU21D;59019;47.638;18.966;2023-02-27T07:45:36;2.80;61.57
71254;HTU21D;59019;47.638;18.966;2023-02-27T07:48:02;2.98;64.24
71254;HTU21D;59019;47.638;18.966;2023-02-27T07:50:27;3.19;62.83
71254;HTU21D;59019;47.638;18.966;2023-02-27T07:52:53;3.35;64.28
71254;HTU21D;59019;47.638;18.966;2023-02-27T07:55:18;3.41;62.52
71254;HTU21D;59019;47.638;18.966;2023-02-27T07:57:44;3.35;59.93
71254;HTU21D;59019;47.638;18.966;2023-02-27T08:00:10;3.40;58.66
71254;HTU21D;59019;47.638;18.966;2023-02-27T08:02:36;3.40;59.35
71254;HTU21D;59019;47.638;18.966;2023-02-27T08:05:03;3.75;60.35
71254;HTU21D;59019;47.638;18.966;2023-02-27T08:07:29;3.99;60.67
71254;HTU21D;59019;47.638;18.966;2023-02-27T08:09:54;4.18;61.82
71254;HTU21D;59019;47.638;18.966;2023-02-27T08:12:20;4.16;59.21
71254;HTU21D;59019;47.638;18.966;2023-02-27T08:14:46;3.92;60.39
71254;HTU21D;59019;47.638;18.966;2023-02-27T08:17:12;4.19;61.44
71254;HTU21D;59019;47.638;18.966;2023-02-27T08:19:38;4.36;60.22
71254;HTU21D;59019;47.638;18.966;2023-02-27T08:22:04;4.41;58.26
71254;HTU21D;59019;47.638;18.966;2023-02-27T08:24:29;4.49;57.22
71254;HTU21D;59019;47.638;18.966;2023-02-27T08:26:55;4.51;58.19
71254;HTU21D;59019;47.638;18.966;2023-02-27T08:29:21;4.67;57.54
71254;HTU21D;59019;47.638;18.966;2023-02-27T08:31:47;4.79;57.26
71254;HTU21D;59019;47.638;18.966;2023-02-27T08:34:12;4.69;55.94
71254;HTU21D;59019;47.638;18.966;2023-02-27T08:36:38;4.67;57.25
71254;HTU21D;59019;47.638;18.966;2023-02-27T08:39:06;4.54;56.61
71254;HTU21D;59019;47.638;18.966;2023-02-27T08:41:31;4.53;56.61
71254;HTU21D;59019;47.638;18.966;2023-02-27T08:43:57;4.57;56.00
71254;HTU21D;59019;47.638;18.966;2023-02-27T08:46:22;4.47;56.73
71254;HTU21D;59019;47.638;18.966;2023-02-27T08:48:48;4.56;56.65
71254;HTU21D;59019;47.638;18.966;2023-02-27T08:51:13;3.76;56.68
71254;HTU21D;59019;47.638;18.966;2023-02-27T08:53:39;3.85;57.22
71254;HTU21D;59019;47.638;18.966;2023-02-27T08:56:05;4.17;57.00
71254;HTU21D;59019;47.638;18.966;2023-02-27T08:58:31;4.43;55.81
71254;HTU21D;59019;47.638;18.966;2023-02-27T09:00:58;4.41;58.29
71254;HTU21D;59019;47.638;18.966;2023-02-27T09:03:23;4.36;57.46
71254;HTU21D;59019;47.638;18.966;2023-02-27T09:05:53;4.21;58.87
71254;HTU21D;59019;47.638;18.966;2023-02-27T09:08:19;4.54;58.73
71254;HTU21D;59019;47.638;18.966;2023-02-27T09:10:44;4.50;59.02
71254;HTU21D;59019;47.638;18.966;2023-02-27T09:13:10;4.19;56.87
71254;HTU21D;59019;47.638;18.966;2023-02-27T09:15:35;4.32;56.33
71254;HTU21D;59019;47.638;18.966;2023-02-27T09:18:02;4.52;57.35
71254;HTU21D;59019;47.638;18.966;2023-02-27T09:20:33;4.26;56.21
71254;HTU21D;59019;47.638;18.966;2023-02-27T09:23:02;4.53;55.84
71254;HTU21D;59019;47.638;18.966;2023-02-27T09:25:28;4.47;56.96
71254;HTU21D;59019;47.638;18.966;2023-02-27T09:27:54;4.76;58.30
71254;HTU21D;59019;47.638;18.966;2023-02-27T09:30:20;5.13;57.79
71254;HTU21D;59019;47.638;18.966;2023-02-27T09:32:46;5.16;56.39
71254;HTU21D;59019;47.638;18.966;2023-02-27T09:35:12;5.49;55.87
71254;HTU21D;59019;47.638;18.966;2023-02-27T09:37:42;5.55;55.70
71254;HTU21D;59019;47.638;18.966;2023-02-27T09:40:19;5.72;55.78
71254;HTU21D;59019;47.638;18.966;2023-02-27T09:42:47;5.84;55.03
71254;HTU21D;59019;47.638;18.966;2023-02-27T09:45:21;5.75;55.11
71254;HTU21D;59019;47.638;18.966;2023-02-27T09:47:52;5.74;54.16
71254;HTU21D;59019;47.638;18.966;2023-02-27T09:52:59;5.69;54.15
71254;HTU21D;59019;47.638;18.966;2023-02-27T09:55:30;5.84;53.63
71254;HTU21D;59019;47.638;18.966;2023-02-27T10:08:48;5.99;53.52
71254;HTU21D;59019;47.638;18.966;2023-02-27T10:11:24;5.96;52.66
71254;HTU21D;59019;47.638;18.966;2023-02-27T10:14:08;5.96;54.41
71254;HTU21D;59019;47.638;18.966;2023-02-27T10:16:39;5.93;55.20
71254;HTU21D;59019;47.638;18.966;2023-02-27T10:19:14;6.08;53.58
71254;HTU21D;59019;47.638;18.966;2023-02-27T10:21:52;5.95;53.73
71254;HTU21D;59019;47.638;18.966;2023-02-27T10:24:25;5.70;55.22
71254;HTU21D;59019;47.638;18.966;2023-02-27T10:26:54;5.46;53.94
71254;HTU21D;59019;47.638;18.966;2023-02-27T10:29:29;5.63;54.86
71254;HTU21D;59019;47.638;18.966;2023-02-27T10:32:14;5.74;55.37
71254;HTU21D;59019;47.638;18.966;2023-02-27T10:34:43;5.93;55.38
71254;HTU21D;59019;47.638;18.966;2023-02-27T10:37:14;5.83;54.79
71254;HTU21D;59019;47.638;18.966;2023-02-27T10:39:59;6.21;53.73
71254;HTU21D;59019;47.638;18.966;2023-02-27T10:42:34;6.45;53.29
71254;HTU21D;59019;47.638;18.966;2023-02-27T10:45:02;6.89;52.87
71254;HTU21D;59019;47.638;18.966;2023-02-27T10:47:28;7.11;51.61
71254;HTU21D;59019;47.638;18.966;2023-02-27T10:49:55;6.65;51.32
71254;HTU21D;59019;47.638;18.966;2023-02-27T10:52:21;6.79;51.18
71254;HTU21D;59019;47.638;18.966;2023-02-27T10:54:47;6.75;51.41
71254;HTU21D;59019;47.638;18.966;2023-02-27T10:57:39;6.83;51.46
71254;HTU21D;59019;47.638;18.966;2023-02-27T11:00:21;5.82;51.24
71254;HTU21D;59019;47.638;18.966;2023-02-27T11:02:49;5.93;55.28
71254;HTU21D;59019;47.638;18.966;2023-02-27T11:05:31;6.19;55.09
71254;HTU21D;59019;47.638;18.966;2023-02-27T11:08:20;6.22;54.36
71254;HTU21D;59019;47.638;18.966;2023-02-27T11:11:02;6.30;53.74
71254;HTU21D;59019;47.638;18.966;2023-02-27T11:13:34;6.25;52.24
71254;HTU21D;59019;47.638;18.966;2023-02-27T11:16:09;6.21;54.81
71254;HTU21D;59019;47.638;18.966;2023-02-27T11:18:38;6.41;53.36
71254;HTU21D;59019;47.638;18.966;2023-02-27T11:21:23;6.61;51.59
71254;HTU21D;59019;47.638;18.966;2023-02-27T11:24:01;6.46;52.26
71254;HTU21D;59019;47.638;18.966;2023-02-27T11:26:36;6.69;53.30
71254;HTU21D;59019;47.638;18.966;2023-02-27T11:29:17;6.69;51.63
71254;HTU21D;59019;47.638;18.966;2023-02-27T11:31:50;6.82;51.11
71254;HTU21D;59019;47.638;18.966;2023-02-27T11:34:20;7.04;50.76
71254;HTU21D;59019;47.638;18.966;2023-02-27T11:36:47;6.97;51.50
71254;HTU21D;59019;47.638;18.966;2023-02-27T11:39:25;6.84;50.93
71254;HTU21D;59019;47.638;18.966;2023-02-27T11:41:52;7.14;49.82
71254;HTU21D;59019;47.638;18.966;2023-02-27T11:44:23;7.28;51.11
71254;HTU21D;59019;47.638;18.966;2023-02-27T11:46:49;7.32;50.69
71254;HTU21D;59019;47.638;18.966;2023-02-27T11:52:16;6.85;51.30
71254;HTU21D;59019;47.638;18.966;2023-02-27T11:54:57;7.23;50.56
71254;HTU21D;59019;47.638;18.966;2023-02-27T11:57:31;7.40;50.21
71254;HTU21D;59019;47.638;18.966;2023-02-27T12:00:17;7.44;49.66
71254;HTU21D;59019;47.638;18.966;2023-02-27T12:03:11;7.52;49.65
71254;HTU21D;59019;47.638;18.966;2023-02-27T12:05:50;7.38;49.46
71254;HTU21D;59019;47.638;18.966;2023-02-27T12:08:38;7.53;49.63
71254;HTU21D;59019;47.638;18.966;2023-02-27T12:11:20;7.64;50.01
71254;HTU21D;59019;47.638;18.966;2023-02-27T12:13:52;7.81;50.24
71254;HTU21D;59019;47.638;18.966;2023-02-27T12:16:26;7.90;49.37
71254;HTU21D;59019;47.638;18.966;2023-02-27T12:19:03;8.06;48.89
71254;HTU21D;59019;47.638;18.966;2023-02-27T12:21:41;8.01;48.12
71254;HTU21D;59019;47.638;18.966;2023-02-27T12:24:22;8.04;47.30
71254;HTU21D;59019;47.638;18.966;2023-02-27T12:26:59;7.86;48.75
71254;HTU21D;59019;47.638;18.966;2023-02-27T12:29:34;8.04;49.81
71254;HTU21D;59019;47.638;18.966;2023-02-27T12:34:52;8.57;48.21
71254;HTU21D;59019;47.638;18.966;2023-02-27T12:37:36;8.82;48.40
71254;HTU21D;59019;47.638;18.966;2023-02-27T12:40:03;9.26;47.30
71254;HTU21D;59019;47.638;18.966;2023-02-27T12:42:48;9.45;45.15
71254;HTU21D;59019;47.638;18.966;2023-02-27T12:50:21;9.22;43.48
71254;HTU21D;59019;47.638;18.966;2023-02-27T12:55:32;8.68;45.57
71254;HTU21D;59019;47.638;18.966;2023-02-27T13:00:52;9.30;45.06
71254;HTU21D;59019;47.638;18.966;2023-02-27T13:03:38;9.57;44.03
71254;HTU21D;59019;47.638;18.966;2023-02-27T13:14:29;9.77;44.14
71254;HTU21D;59019;47.638;18.966;2023-02-27T13:17:04;9.72;44.56
71254;HTU21D;59019;47.638;18.966;2023-02-27T13:19:40;9.11;44.94
71254;HTU21D;59019;47.638;18.966;2023-02-27T13:22:13;9.17;45.73
71254;HTU21D;59019;47.638;18.966;2023-02-27T13:24:49;8.86;44.31
71254;HTU21D;59019;47.638;18.966;2023-02-27T13:32:43;8.21;46.28
71254;HTU21D;59019;47.638;18.966;2023-02-27T13:38:00;7.92;47.41
71254;HTU21D;59019;47.638;18.966;2023-02-27T13:40:35;7.15;48.11
71254;HTU21D;59019;47.638;18.966;2023-02-27T13:45:50;7.18;48.06
71254;HTU21D;59019;47.638;18.966;2023-02-27T13:48:42;7.35;48.57
71254;HTU21D;59019;47.638;18.966;2023-02-27T13:59:35;7.09;47.25
71254;HTU21D;59019;47.638;18.966;2023-02-27T14:04:48;7.32;48.48
71254;HTU21D;59019;47.638;18.966;2023-02-27T14:07:17;7.37;48.65
71254;HTU21D;59019;47.638;18.966;2023-02-27T14:09:47;7.44;48.21
71254;HTU21D;59019;47.638;18.966;2023-02-27T14:12:34;7.28;48.06
71254;HTU21D;59019;47.638;18.966;2023-02-27T14:15:03;7.26;48.31
71254;HTU21D;59019;47.638;18.966;2023-02-27T14:25:53;6.89;50.45
71254;HTU21D;59019;47.638;18.966;2023-02-27T14:28:34;6.99;49.44
71254;HTU21D;59019;47.638;18.966;2023-02-27T14:31:20;6.87;48.70
71254;HTU21D;59019;47.638;18.966;2023-02-27T14:33:50;6.66;49.08
71254;HTU21D;59019;47.638;18.966;2023-02-27T14:36:25;6.71;49.38
71254;HTU21D;59019;47.638;18.966;2023-02-27T14:38:54;6.25;48.94
71254;HTU21D;59019;47.638;18.966;2023-02-27T14:43:53;5.92;50.29
71254;HTU21D;59019;47.638;18.966;2023-02-27T14:46:38;6.16;49.61
71254;HTU21D;59019;47.638;18.966;2023-02-27T14:49:34;6.02;49.74
71254;HTU21D;59019;47.638;18.966;2023-02-27T14:52:31;6.09;50.56
71254;HTU21D;59019;47.638;18.966;2023-02-27T15:00:40;5.66;51.61
71254;HTU21D;59019;47.638;18.966;2023-02-27T15:05:45;5.18;52.23
71254;HTU21D;59019;47.638;18.966;2023-02-27T15:08:24;5.06;53.34
71254;HTU21D;59019;47.638;18.966;2023-02-27T15:10:54;4.76;53.58
71254;HTU21D;59019;47.638;18.966;2023-02-27T15:13:28;4.87;53.43
71254;HTU21D;59019;47.638;18.966;2023-02-27T15:19:03;4.45;54.30
71254;HTU21D;59019;47.638;18.966;2023-02-27T15:21:32;4.46;54.42
71254;HTU21D;59019;47.638;18.966;2023-02-27T15:24:05;4.48;54.22
71254;HTU21D;59019;47.638;18.966;2023-02-27T15:26:37;4.29;55.27
71254;HTU21D;59019;47.638;18.966;2023-02-27T15:29:05;4.19;56.00
71254;HTU21D;59019;47.638;18.966;2023-02-27T15:31:32;4.05;55.85
71254;HTU21D;59019;47.638;18.966;2023-02-27T15:34:00;4.02;56.23
71254;HTU21D;59019;47.638;18.966;2023-02-27T15:36:28;4.07;56.15
71254;HTU21D;59019;47.638;18.966;2023-02-27T15:41:32;3.88;56.56
71254;HTU21D;59019;47.638;18.966;2023-02-27T15:43:59;3.77;57.27
71254;HTU21D;59019;47.638;18.966;2023-02-27T15:46:26;3.65;57.70
71254;HTU21D;59019;47.638;18.966;2023-02-27T15:48:53;3.67;57.95
71254;HTU21D;59019;47.638;18.966;2023-02-27T15:51:19;3.47;59.99
71254;HTU21D;59019;47.638;18.966;2023-02-27T15:53:48;3.43;59.91
71254;HTU21D;59019;47.638;18.966;2023-02-27T15:56:14;3.29;60.15
71254;HTU21D;59019;47.638;18.966;2023-02-27T15:58:46;3.21;60.54
71254;HTU21D;59019;47.638;18.966;2023-02-27T16:01:22;3.18;60.75
71254;HTU21D;59019;47.638;18.966;2023-02-27T16:03:52;3.12;61.44
71254;HTU21D;59019;47.638;18.966;2023-02-27T16:08:55;2.73;63.82
71254;HTU21D;59019;47.638;18.966;2023-02-27T16:11:27;2.62;63.36
71254;HTU21D;59019;47.638;18.966;2023-02-27T16:13:54;2.42;64.66
71254;HTU21D;59019;47.638;18.966;2023-02-27T16:16:34;2.28;65.61
71254;HTU21D;59019;47.638;18.966;2023-02-27T16:22:15;1.93;67.30
71254;HTU21D;59019;47.638;18.966;2023-02-27T16:24:41;1.93;67.81
71254;HTU21D;59019;47.638;18.966;2023-02-27T16:27:25;1.65;68.95
71254;HTU21D;59019;47.638;18.966;2023-02-27T16:29:53;1.54;69.23
71254;HTU21D;59019;47.638;18.966;2023-02-27T16:32:28;1.57;74.05
71254;HTU21D;59019;47.638;18.966;2023-02-27T16:35:03;1.49;73.80
71254;HTU21D;59019;47.638;18.966;2023-02-27T16:37:35;1.26;70.54
71254;HTU21D;59019;47.638;18.966;2023-02-27T16:40:07;1.20;68.68
71254;HTU21D;59019;47.638;18.966;2023-02-27T16:42:33;0.93;68.65
71254;HTU21D;59019;47.638;18.966;2023-02-27T16:44:59;0.86;69.04
71254;HTU21D;59019;47.638;18.966;2023-02-27T16:47:24;0.75;69.16
71254;HTU21D;59019;47.638;18.966;2023-02-27T16:49:50;0.76;69.60
71254;HTU21D;59019;47.638;18.966;2023-02-27T16:52:15;0.71;70.10
71254;HTU21D;59019;47.638;18.966;2023-02-27T16:54:41;0.52;71.50
71254;HTU21D;59019;47.638;18.966;2023-02-27T16:57:08;0.48;73.99
71254;HTU21D;59019;47.638;18.966;2023-02-27T16:59:35;0.42;75.47
71254;HTU21D;59019;47.638;18.966;2023-02-27T17:02:04;0.43;73.70
71254;HTU21D;59019;47.638;18.966;2023-02-27T17:04:31;0.32;73.91
71254;HTU21D;59019;47.638;18.966;2023-02-27T17:06:58;0.19;75.44
71254;HTU21D;59019;47.638;18.966;2023-02-27T17:09:24;0.09;76.79
71254;HTU21D;59019;47.638;18.966;2023-02-27T17:11:51;0.05;80.17
71254;HTU21D;59019;47.638;18.966;2023-02-27T17:14:17;-0.06;82.34
71254;HTU21D;59019;47.638;18.966;2023-02-27T17:16:42;-0.10;82.33
71254;HTU21D;59019;47.638;18.966;2023-02-27T17:19:08;-0.19;80.41
71254;HTU21D;59019;47.638;18.966;2023-02-27T17:21:34;-0.13;79.16
71254;HTU21D;59019;47.638;18.966;2023-02-27T17:24:00;-0.24;78.70
71254;HTU21D;59019;47.638;18.966;2023-02-27T17:26:26;-0.29;78.69
71254;HTU21D;59019;47.638;18.966;2023-02-27T17:28:52;-0.36;78.94
71254;HTU21D;59019;47.638;18.966;2023-02-27T17:31:18;-0.39;78.81
71254;HTU21D;59019;47.638;18.966;2023-02-27T17:33:51;-0.45;81.77
71254;HTU21D;59019;47.638;18.966;2023-02-27T17:36:18;-0.50;83.46
71254;HTU21D;59019;47.638;18.966;2023-02-27T17:38:44;-0.46;85.15
71254;HTU21D;59019;47.638;18.966;2023-02-27T17:41:11;-0.42;85.15
71254;HTU21D;59019;47.638;18.966;2023-02-27T17:43:37;-0.52;82.83
71254;HTU21D;59019;47.638;18.966;2023-02-27T17:46:07;-0.50;79.52
71254;HTU21D;59019;47.638;18.966;2023-02-27T17:48:34;-0.51;78.92
71254;HTU21D;59019;47.638;18.966;2023-02-27T17:51:11;-0.46;78.11
71254;HTU21D;59019;47.638;18.966;2023-02-27T17:53:38;-0.54;77.08
71254;HTU21D;59019;47.638;18.966;2023-02-27T17:56:04;-0.68;77.60
71254;HTU21D;59019;47.638;18.966;2023-02-27T17:58:33;-0.73;77.75
71254;HTU21D;59019;47.638;18.966;2023-02-27T18:01:11;-0.69;77.66
71254;HTU21D;59019;47.638;18.966;2023-02-27T18:03:38;-0.87;77.71
71254;HTU21D;59019;47.638;18.966;2023-02-27T18:06:05;-0.95;77.92
71254;HTU21D;59019;47.638;18.966;2023-02-27T18:08:31;-0.95;77.69
71254;HTU21D;59019;47.638;18.966;2023-02-27T18:10:57;-1.00;77.76
71254;HTU21D;59019;47.638;18.966;2023-02-27T18:13:23;-1.10;78.05
71254;HTU21D;59019;47.638;18.966;2023-02-27T18:15:51;-1.16;77.87